createdAt,value
2022-08-31T00:00:43.593Z,100591.97
2022-08-31T00:03:30.064Z,100589.06
2022-08-31T00:06:01.297Z,100582.06
2022-08-31T00:08:30.431Z,100581.56
2022-08-31T00:10:59.306Z,100575.59
2022-08-31T00:13:29.928Z,100582.22
2022-08-31T00:15:58.882Z,100587.34
2022-08-31T00:18:26.925Z,100580.19
2022-08-31T00:20:55.230Z,100579.75
2022-08-31T00:23:23.222Z,100584.50
2022-08-31T00:25:51.552Z,100572.28
2022-08-31T00:28:20.777Z,100583.59
2022-08-31T00:31:09.879Z,100590.72
2022-08-31T00:33:39.570Z,100582.25
2022-08-31T00:36:12.678Z,100559.31
2022-08-31T00:38:42.114Z,100575.34
2022-08-31T00:41:11.906Z,100575.78
2022-08-31T00:43:57.840Z,100576.47
2022-08-31T00:46:31.289Z,100554.25
2022-08-31T00:49:04.553Z,100567.59
2022-08-31T00:51:42.392Z,100574.88
2022-08-31T00:54:13.084Z,100571.84
2022-08-31T00:56:44.845Z,100581.41
2022-08-31T00:59:17.709Z,100560.72
2022-08-31T01:01:47.505Z,100573.47
2022-08-31T01:04:16.861Z,100581.47
2022-08-31T01:06:47.337Z,100586.03
2022-08-31T01:09:16.463Z,100583.88
2022-08-31T01:11:45.758Z,100581.69
2022-08-31T01:14:14.723Z,100567.94
2022-08-31T01:16:51.300Z,100577.09
2022-08-31T01:19:40.809Z,100583.69
2022-08-31T01:22:14.764Z,100571.75
2022-08-31T01:24:47.334Z,100572.31
2022-08-31T01:27:21.904Z,100571.84
2022-08-31T01:29:51.068Z,100578.69
2022-08-31T01:32:19.567Z,100569.94
2022-08-31T01:34:48.032Z,100582.97
2022-08-31T01:37:17.585Z,100595.44
2022-08-31T01:39:45.865Z,100585.09
2022-08-31T01:42:14.181Z,100601.38
2022-08-31T01:44:42.886Z,100591.91
2022-08-31T01:47:11.596Z,100586.38
2022-08-31T01:49:40.240Z,100581.81
2022-08-31T01:52:08.201Z,100579.72
2022-08-31T01:54:36.418Z,100590.34
2022-08-31T01:57:04.727Z,100588.63
2022-08-31T01:59:53.220Z,100584.44
2022-08-31T02:02:40.393Z,100589.13
2022-08-31T02:05:10.825Z,100586.81
2022-08-31T02:07:39.201Z,100577.19
2022-08-31T02:10:08.324Z,100576.06
2022-08-31T02:12:36.780Z,100565.97
2022-08-31T02:15:09.506Z,100580.63
2022-08-31T02:17:38.450Z,100577.19
2022-08-31T02:20:10.881Z,100558.69
2022-08-31T02:22:39.230Z,100558.81
2022-08-31T02:25:08.646Z,100567.00
2022-08-31T02:27:38.270Z,100561.59
2022-08-31T02:30:17.164Z,100559.00
2022-08-31T02:32:45.292Z,100552.41
2022-08-31T02:35:14.404Z,100563.34
2022-08-31T02:37:43.119Z,100555.56
2022-08-31T02:40:13.367Z,100555.75
2022-08-31T02:42:52.924Z,100549.16
2022-08-31T02:45:25.391Z,100543.44
2022-08-31T02:47:57.508Z,100543.84
2022-08-31T02:50:33.697Z,100551.31
2022-08-31T02:53:02.227Z,100555.75
2022-08-31T02:55:36.063Z,100566.69
2022-08-31T02:58:06.199Z,100530.00
2022-08-31T03:00:37.982Z,100556.22
2022-08-31T03:03:07.031Z,100539.59
2022-08-31T03:05:35.206Z,100537.75
2022-08-31T03:08:03.801Z,100543.03
2022-08-31T03:10:31.805Z,100533.72
2022-08-31T03:12:59.873Z,100545.19
2022-08-31T03:15:29.853Z,100537.53
2022-08-31T03:17:58.248Z,100543.56
2022-08-31T03:20:27.874Z,100546.28
2022-08-31T03:22:56.232Z,100546.44
2022-08-31T03:25:27.499Z,100551.97
2022-08-31T03:27:55.513Z,100538.69
2022-08-31T03:30:24.359Z,100526.72
2022-08-31T03:33:15.831Z,100540.75
2022-08-31T03:35:46.758Z,100527.72
2022-08-31T03:38:16.837Z,100517.00
2022-08-31T03:40:45.254Z,100544.25
2022-08-31T03:43:14.427Z,100544.38
2022-08-31T03:45:44.133Z,100535.41
2022-08-31T03:48:13.336Z,100565.59
2022-08-31T03:50:44.450Z,100550.38
2022-08-31T03:53:22.618Z,100563.16
2022-08-31T03:56:01.637Z,100552.56
2022-08-31T03:58:32.757Z,100576.44
2022-08-31T04:01:02.739Z,100574.28
2022-08-31T04:03:49.341Z,100567.16
2022-08-31T04:06:36.449Z,100578.91
2022-08-31T04:09:27.663Z,100587.91
2022-08-31T04:12:34.463Z,100588.63
2022-08-31T04:15:21.040Z,100597.00
2022-08-31T04:18:25.015Z,100593.13
2022-08-31T04:20:54.131Z,100597.81
2022-08-31T04:23:22.219Z,100607.53
2022-08-31T04:25:52.467Z,100596.97
2022-08-31T04:28:20.439Z,100588.59
2022-08-31T04:30:50.419Z,100604.34
2022-08-31T04:33:18.567Z,100590.56
2022-08-31T04:35:47.296Z,100605.22
2022-08-31T04:38:16.912Z,100607.19
2022-08-31T04:40:47.173Z,100602.31
2022-08-31T04:43:15.724Z,100612.03
2022-08-31T04:45:46.250Z,100600.81
2022-08-31T04:48:15.090Z,100614.97
2022-08-31T04:50:44.035Z,100615.50
2022-08-31T04:53:12.483Z,100623.59
2022-08-31T04:55:42.174Z,100631.50
2022-08-31T04:58:14.345Z,100633.59
2022-08-31T05:00:44.149Z,100617.81
2022-08-31T05:03:23.533Z,100625.97
2022-08-31T05:05:54.749Z,100620.69
2022-08-31T05:08:23.020Z,100631.06
2022-08-31T05:10:53.075Z,100630.78
2022-08-31T05:13:21.322Z,100634.25
2022-08-31T05:15:50.727Z,100630.41
2022-08-31T05:18:25.747Z,100629.81
2022-08-31T05:20:58.092Z,100632.25
2022-08-31T05:23:26.388Z,100640.63
2022-08-31T05:25:54.772Z,100647.03
2022-08-31T05:28:23.793Z,100638.28
2022-08-31T05:30:52.278Z,100638.53
2022-08-31T05:33:40.048Z,100633.00
2022-08-31T05:36:08.900Z,100638.56
2022-08-31T05:38:41.619Z,100633.91
2022-08-31T05:41:11.375Z,100626.50
2022-08-31T05:43:41.147Z,100632.41
2022-08-31T05:46:13.330Z,100638.69
2022-08-31T05:48:42.997Z,100642.66
2022-08-31T05:51:19.178Z,100645.50
2022-08-31T05:53:48.647Z,100646.63
2022-08-31T05:56:26.496Z,100646.72
2022-08-31T05:58:57.706Z,100638.97
2022-08-31T06:01:31.884Z,100628.25
2022-08-31T06:04:16.128Z,100642.66
2022-08-31T06:06:46.208Z,100657.06
2022-08-31T06:09:16.699Z,100651.66
2022-08-31T06:11:48.314Z,100652.78
2022-08-31T06:14:18.688Z,100667.91
2022-08-31T06:16:48.731Z,100668.66
2022-08-31T06:19:20.895Z,100649.06
2022-08-31T06:21:51.558Z,100664.44
2022-08-31T06:24:27.275Z,100673.59
2022-08-31T06:27:15.846Z,100647.22
2022-08-31T06:29:44.921Z,100663.13
2022-08-31T06:32:15.665Z,100657.81
2022-08-31T06:34:56.533Z,100662.25
2022-08-31T06:37:43.572Z,100676.56
2022-08-31T06:40:52.571Z,100675.31
2022-08-31T06:43:44.040Z,100679.50
2022-08-31T06:46:41.600Z,100678.03
2022-08-31T06:49:20.469Z,100683.78
2022-08-31T06:51:48.747Z,100671.94
2022-08-31T06:54:34.974Z,100686.63
2022-08-31T06:57:29.147Z,100682.09
2022-08-31T07:00:34.947Z,100693.28
2022-08-31T07:03:24.274Z,100693.03
2022-08-31T07:05:54.534Z,100699.94
2022-08-31T07:08:23.688Z,100699.09
2022-08-31T07:10:53.886Z,100706.94
2022-08-31T07:13:22.560Z,100701.13
2022-08-31T07:15:50.417Z,100703.00
2022-08-31T07:18:18.712Z,100703.63
2022-08-31T07:20:48.345Z,100710.63
2022-08-31T07:23:17.755Z,100721.47
2022-08-31T07:26:03.230Z,100710.16
2022-08-31T07:28:34.050Z,100719.66
2022-08-31T07:31:05.473Z,100709.75
2022-08-31T07:33:38.262Z,100695.84
2022-08-31T07:36:11.031Z,100716.16
2022-08-31T07:39:32.895Z,100721.72
2022-08-31T07:42:11.391Z,100713.31
2022-08-31T07:44:43.019Z,100712.09
2022-08-31T07:47:23.167Z,100704.56
2022-08-31T07:49:54.684Z,100709.59
2022-08-31T07:52:54.059Z,100701.06
2022-08-31T07:55:42.062Z,100711.94
2022-08-31T07:58:28.225Z,100705.00
2022-08-31T08:01:03.174Z,100714.81
2022-08-31T08:03:31.468Z,100719.25
2022-08-31T08:06:20.434Z,100718.06
2022-08-31T08:09:23.924Z,100731.72
2022-08-31T08:12:13.342Z,100733.31
2022-08-31T08:15:00.784Z,100713.72
2022-08-31T08:17:47.281Z,100741.28
2022-08-31T08:20:23.767Z,100761.75
2022-08-31T08:23:18.401Z,100751.47
2022-08-31T08:26:30.576Z,100752.00
2022-08-31T08:29:06.472Z,100749.44
2022-08-31T08:31:38.820Z,100760.75
2022-08-31T08:34:07.010Z,100756.59
2022-08-31T08:36:40.526Z,100749.69
2022-08-31T08:39:13.037Z,100749.97
2022-08-31T08:41:45.720Z,100765.03
2022-08-31T08:44:18.543Z,100765.22
2022-08-31T08:47:02.758Z,100770.91
2022-08-31T08:49:50.860Z,100774.38
2022-08-31T08:52:41.505Z,100773.19
2022-08-31T08:55:17.076Z,100775.75
2022-08-31T08:57:49.995Z,100776.78
2022-08-31T09:00:24.958Z,100781.50
2022-08-31T09:03:24.096Z,100786.50
2022-08-31T09:07:09.578Z,100780.97
2022-08-31T09:09:49.485Z,100793.69
2022-08-31T09:12:30.854Z,100800.72
2022-08-31T09:15:33.279Z,100794.47
2022-08-31T09:18:07.123Z,100800.38
2022-08-31T09:20:36.635Z,100795.16
2022-08-31T09:23:08.017Z,100795.72
2022-08-31T09:25:53.953Z,100802.91
2022-08-31T09:28:44.952Z,100803.81
2022-08-31T09:31:39.900Z,100817.22
2022-08-31T09:34:36.491Z,100828.50
2022-08-31T09:37:25.145Z,100823.34
2022-08-31T09:39:55.062Z,100820.19
2022-08-31T09:42:31.369Z,100826.59
2022-08-31T09:45:30.278Z,100819.97
2022-08-31T09:48:01.973Z,100818.47
2022-08-31T09:50:42.150Z,100806.31
2022-08-31T09:53:41.551Z,100811.28
2022-08-31T09:56:21.818Z,100808.34
2022-08-31T09:59:01.764Z,100814.94
2022-08-31T10:01:45.676Z,100807.09
2022-08-31T10:04:43.920Z,100815.72
2022-08-31T10:08:04.693Z,100808.38
2022-08-31T10:10:39.606Z,100809.88
2022-08-31T10:13:34.373Z,100803.47
2022-08-31T10:16:34.916Z,100810.13
2022-08-31T10:19:13.551Z,100787.94
2022-08-31T10:21:54.801Z,100791.09
2022-08-31T10:24:34.645Z,100799.22
2022-08-31T10:27:14.252Z,100795.63
2022-08-31T10:29:59.938Z,100802.78
2022-08-31T10:32:43.564Z,100800.16
2022-08-31T10:35:48.826Z,100799.56
2022-08-31T10:38:36.261Z,100805.06
2022-08-31T10:41:13.322Z,100803.13
2022-08-31T10:44:02.682Z,100808.28
2022-08-31T10:46:34.747Z,100815.34
2022-08-31T10:49:06.796Z,100815.50
2022-08-31T10:52:18.621Z,100807.56
2022-08-31T10:55:06.823Z,100800.69
2022-08-31T10:57:44.121Z,100805.03
2022-08-31T11:00:42.194Z,100803.09
2022-08-31T11:03:44.009Z,100802.00
2022-08-31T11:06:35.982Z,100806.31
2022-08-31T11:09:22.938Z,100801.91
2022-08-31T11:12:20.356Z,100805.47
2022-08-31T11:14:58.591Z,100804.06
2022-08-31T11:18:06.026Z,100811.56
2022-08-31T11:21:11.345Z,100804.78
2022-08-31T11:24:02.959Z,100797.16
2022-08-31T11:26:50.856Z,100799.09
2022-08-31T11:29:49.193Z,100791.34
2022-08-31T11:32:37.773Z,100794.03
2022-08-31T11:35:10.489Z,100786.75
2022-08-31T11:37:54.255Z,100792.06
2022-08-31T11:40:42.351Z,100797.63
2022-08-31T11:43:36.872Z,100789.59
2022-08-31T11:46:26.395Z,100785.53
2022-08-31T11:48:56.216Z,100782.81
2022-08-31T11:51:37.323Z,100773.94
2022-08-31T11:54:36.402Z,100786.25
2022-08-31T11:57:07.612Z,100793.66
2022-08-31T11:59:43.668Z,100794.53
2022-08-31T12:02:21.445Z,100788.09
2022-08-31T12:04:52.377Z,100796.75
2022-08-31T12:07:44.997Z,100797.47
2022-08-31T12:10:16.922Z,100797.63
2022-08-31T12:13:31.347Z,100796.75
2022-08-31T12:16:05.146Z,100796.75
2022-08-31T12:20:01.297Z,100789.13
2022-08-31T12:23:30.809Z,100789.72
2022-08-31T12:26:54.559Z,100793.44
2022-08-31T12:29:37.935Z,100788.97
2022-08-31T12:32:36.503Z,100792.53
2022-08-31T12:35:19.971Z,100791.91
2022-08-31T12:38:04.918Z,100790.25
2022-08-31T12:40:52.349Z,100776.19
2022-08-31T12:43:28.432Z,100776.38
2022-08-31T12:46:08.134Z,100783.13
2022-08-31T12:49:18.265Z,100775.84
2022-08-31T12:52:38.226Z,100764.00
2022-08-31T12:55:13.684Z,100767.19
2022-08-31T12:58:11.950Z,100764.28
2022-08-31T13:00:44.066Z,100757.47
2022-08-31T13:03:31.587Z,100757.91
2022-08-31T13:06:13.908Z,100755.50
2022-08-31T13:08:50.641Z,100752.63
2022-08-31T13:11:40.231Z,100746.78
2022-08-31T13:14:24.717Z,100743.09
2022-08-31T13:17:18.262Z,100745.69
2022-08-31T13:19:58.118Z,100739.22
2022-08-31T13:22:45.592Z,100720.75
2022-08-31T13:25:35.946Z,100747.84
2022-08-31T13:28:13.678Z,100738.84
2022-08-31T13:30:55.323Z,100734.41
2022-08-31T13:33:40.343Z,100714.94
2022-08-31T13:36:32.501Z,100726.84
2022-08-31T13:39:25.596Z,100715.91
2022-08-31T13:42:08.354Z,100720.81
2022-08-31T13:44:45.148Z,100717.13
2022-08-31T13:47:24.713Z,100714.16
2022-08-31T13:50:24.059Z,100712.16
2022-08-31T13:53:25.819Z,100715.19
2022-08-31T13:55:53.398Z,100698.53
2022-08-31T13:58:31.785Z,100702.16
2022-08-31T14:01:24.757Z,100700.16
2022-08-31T14:03:59.340Z,100681.66
2022-08-31T14:06:39.868Z,100677.09
2022-08-31T14:09:16.469Z,100698.66
2022-08-31T14:12:03.052Z,100706.00
2022-08-31T14:14:45.027Z,100701.66
2022-08-31T14:17:42.596Z,100696.94
2022-08-31T14:20:39.862Z,100691.19
2022-08-31T14:23:34.359Z,100693.88
2022-08-31T14:26:15.659Z,100687.81
2022-08-31T14:28:53.688Z,100675.75
2022-08-31T14:31:57.992Z,100683.81
2022-08-31T14:34:35.065Z,100654.56
2022-08-31T14:37:11.507Z,100675.56
2022-08-31T14:39:44.128Z,100672.09
2022-08-31T14:42:35.123Z,100682.59
2022-08-31T14:45:18.989Z,100671.28
2022-08-31T14:47:52.713Z,100661.00
2022-08-31T14:50:25.499Z,100662.31
2022-08-31T14:52:55.539Z,100674.81
2022-08-31T14:55:27.856Z,100657.59
2022-08-31T14:58:10.171Z,100669.53
2022-08-31T15:00:51.074Z,100672.84
2022-08-31T15:03:24.661Z,100673.53
2022-08-31T15:05:52.982Z,100676.56
2022-08-31T15:08:30.222Z,100677.13
2022-08-31T15:11:10.948Z,100670.81
2022-08-31T15:13:39.807Z,100668.38
2022-08-31T15:16:13.418Z,100668.09
2022-08-31T15:18:44.726Z,100675.13
2022-08-31T15:21:13.384Z,100667.81
2022-08-31T15:23:42.222Z,100666.53
2022-08-31T15:26:15.116Z,100663.78
2022-08-31T15:28:43.391Z,100660.91
2022-08-31T15:31:27.393Z,100661.50
2022-08-31T15:34:00.694Z,100661.06
2022-08-31T15:36:28.877Z,100658.34
2022-08-31T15:38:59.009Z,100648.41
2022-08-31T15:41:29.867Z,100654.03
2022-08-31T15:43:57.972Z,100654.88
2022-08-31T15:46:44.975Z,100630.81
2022-08-31T15:49:14.828Z,100643.16
2022-08-31T15:51:49.292Z,100642.72
2022-08-31T15:54:22.968Z,100632.56
2022-08-31T15:56:52.580Z,100646.59
2022-08-31T15:59:23.309Z,100640.84
2022-08-31T16:01:53.831Z,100636.66
2022-08-31T16:04:25.080Z,100627.63
2022-08-31T16:06:55.196Z,100639.38
2022-08-31T16:09:25.041Z,100625.78
2022-08-31T16:11:53.589Z,100634.66
2022-08-31T16:14:23.371Z,100634.66
2022-08-31T16:16:52.108Z,100616.63
2022-08-31T16:19:34.535Z,100615.03
2022-08-31T16:22:08.611Z,100625.34
2022-08-31T16:24:38.560Z,100615.44
2022-08-31T16:27:12.382Z,100616.91
2022-08-31T16:29:46.100Z,100612.59
2022-08-31T16:32:14.830Z,100618.75
2022-08-31T16:34:43.392Z,100613.31
2022-08-31T16:37:12.360Z,100615.34
2022-08-31T16:39:47.100Z,100616.03
2022-08-31T16:42:16.280Z,100627.09
2022-08-31T16:44:47.942Z,100615.44
2022-08-31T16:47:19.337Z,100612.88
2022-08-31T16:49:48.341Z,100608.56
2022-08-31T16:52:26.843Z,100613.91
2022-08-31T16:54:59.490Z,100612.59
2022-08-31T16:57:32.854Z,100614.59
2022-08-31T17:00:03.180Z,100615.88
2022-08-31T17:02:33.605Z,100612.59
2022-08-31T17:05:05.495Z,100606.41
2022-08-31T17:07:34.017Z,100607.69
2022-08-31T17:10:06.523Z,100619.56
2022-08-31T17:12:37.219Z,100604.47
2022-08-31T17:15:09.624Z,100615.22
2022-08-31T17:17:38.527Z,100625.38
2022-08-31T17:20:08.512Z,100597.00
2022-08-31T17:22:37.744Z,100620.06
2022-08-31T17:25:08.452Z,100621.22
2022-08-31T17:27:36.672Z,100624.47
2022-08-31T17:30:08.150Z,100615.31
2022-08-31T17:32:45.257Z,100623.91
2022-08-31T17:35:19.301Z,100628.44
2022-08-31T17:37:48.292Z,100622.72
2022-08-31T17:40:16.954Z,100629.28
2022-08-31T17:42:50.109Z,100634.72
2022-08-31T17:45:20.100Z,100635.84
2022-08-31T17:47:47.959Z,100630.56
2022-08-31T17:50:20.203Z,100640.59
2022-08-31T17:52:48.355Z,100638.38
2022-08-31T17:55:17.712Z,100642.00
2022-08-31T17:57:46.378Z,100627.34
2022-08-31T18:00:16.733Z,100642.41
2022-08-31T18:02:50.083Z,100637.81
2022-08-31T18:05:22.904Z,100640.94
2022-08-31T18:07:51.527Z,100650.97
2022-08-31T18:10:21.260Z,100653.78
2022-08-31T18:12:49.929Z,100655.78
2022-08-31T18:15:19.237Z,100650.63
2022-08-31T18:17:48.534Z,100657.81
2022-08-31T18:20:17.922Z,100651.88
2022-08-31T18:22:51.515Z,100655.34
2022-08-31T18:25:21.336Z,100660.78
2022-08-31T18:27:49.676Z,100663.72
2022-08-31T18:30:18.523Z,100671.00
2022-08-31T18:32:49.511Z,100654.09
2022-08-31T18:35:17.959Z,100662.84
2022-08-31T18:37:47.685Z,100674.72
2022-08-31T18:40:36.768Z,100683.13
2022-08-31T18:43:24.524Z,100678.09
2022-08-31T18:45:53.966Z,100678.25
2022-08-31T18:48:27.949Z,100674.66
2022-08-31T18:50:59.377Z,100669.22
2022-08-31T18:53:30.493Z,100675.94
2022-08-31T18:56:11.810Z,100677.63
2022-08-31T18:58:41.758Z,100668.31
2022-08-31T19:01:13.898Z,100670.31
2022-08-31T19:03:42.955Z,100674.00
2022-08-31T19:06:26.087Z,100678.47
2022-08-31T19:08:55.605Z,100671.09
2022-08-31T19:11:27.038Z,100670.88
2022-08-31T19:13:56.009Z,100667.25
2022-08-31T19:16:29.326Z,100670.59
2022-08-31T19:18:58.645Z,100670.22
2022-08-31T19:21:33.651Z,100671.47
2022-08-31T19:24:07.407Z,100667.66
2022-08-31T19:26:47.164Z,100670.19
2022-08-31T19:29:22.936Z,100666.63
2022-08-31T19:31:51.846Z,100666.41
2022-08-31T19:34:25.827Z,100664.09
2022-08-31T19:36:56.471Z,100663.84
2022-08-31T19:39:31.800Z,100657.47
2022-08-31T19:42:08.867Z,100658.44
2022-08-31T19:44:54.999Z,100659.16
2022-08-31T19:47:26.915Z,100658.06
2022-08-31T19:49:55.276Z,100660.56
2022-08-31T19:52:25.813Z,100665.34
2022-08-31T19:54:54.679Z,100664.00
2022-08-31T19:57:24.349Z,100658.94
2022-08-31T19:59:53.496Z,100660.91
2022-08-31T20:02:21.790Z,100661.66
2022-08-31T20:04:50.442Z,100662.66
2022-08-31T20:07:20.509Z,100662.38
2022-08-31T20:09:48.650Z,100662.63
2022-08-31T20:12:18.949Z,100650.56
2022-08-31T20:14:48.420Z,100658.31
2022-08-31T20:17:16.708Z,100652.50
2022-08-31T20:19:46.889Z,100654.13
2022-08-31T20:22:16.039Z,100654.53
2022-08-31T20:24:45.374Z,100654.66
2022-08-31T20:27:18.792Z,100652.69
2022-08-31T20:29:48.248Z,100640.91
2022-08-31T20:32:16.937Z,100640.38
2022-08-31T20:34:45.354Z,100636.66
2022-08-31T20:37:13.911Z,100651.47
2022-08-31T20:39:42.278Z,100649.97
2022-08-31T20:42:10.871Z,100651.44
2022-08-31T20:44:39.226Z,100652.28
2022-08-31T20:47:29.830Z,100658.66
2022-08-31T20:50:02.698Z,100655.47
2022-08-31T20:52:35.517Z,100660.88
2022-08-31T20:55:08.135Z,100662.50
2022-08-31T20:57:43.925Z,100664.34
2022-08-31T21:00:15.938Z,100657.06
2022-08-31T21:02:47.534Z,100666.28
2022-08-31T21:05:37.503Z,100661.69
2022-08-31T21:08:06.055Z,100671.44
2022-08-31T21:10:37.767Z,100650.97
2022-08-31T21:13:12.509Z,100662.81
2022-08-31T21:15:46.449Z,100660.59
2022-08-31T21:18:17.954Z,100671.28
2022-08-31T21:20:46.842Z,100663.63
2022-08-31T21:23:16.307Z,100669.28
2022-08-31T21:25:46.753Z,100660.78
2022-08-31T21:28:18.074Z,100660.88
2022-08-31T21:30:50.572Z,100656.75
2022-08-31T21:33:22.473Z,100663.28
2022-08-31T21:36:00.798Z,100651.41
2022-08-31T21:38:29.460Z,100657.44
2022-08-31T21:40:57.817Z,100660.06
2022-08-31T21:43:27.289Z,100657.34
2022-08-31T21:46:04.587Z,100651.06
2022-08-31T21:48:35.154Z,100654.72
2022-08-31T21:51:21.226Z,100659.41
2022-08-31T21:54:01.572Z,100662.47
2022-08-31T21:56:37.436Z,100665.28
2022-08-31T21:59:07.963Z,100666.84
2022-08-31T22:01:37.925Z,100666.94
2022-08-31T22:04:10.243Z,100663.72
2022-08-31T22:06:42.841Z,100667.38
2022-08-31T22:09:15.799Z,100662.97
2022-08-31T22:11:50.812Z,100670.34
2022-08-31T22:14:27.067Z,100662.56
2022-08-31T22:16:58.893Z,100672.28
2022-08-31T22:19:28.482Z,100668.81
2022-08-31T22:21:59.380Z,100669.47
2022-08-31T22:24:32.569Z,100670.44
2022-08-31T22:27:08.045Z,100672.28
2022-08-31T22:29:40.937Z,100674.97
2022-08-31T22:32:15.111Z,100682.47
2022-08-31T22:34:44.054Z,100688.81
2022-08-31T22:37:14.124Z,100683.53
2022-08-31T22:39:43.915Z,100668.00
2022-08-31T22:42:13.473Z,100687.22
2022-08-31T22:44:43.990Z,100681.81
2022-08-31T22:47:12.393Z,100691.13
2022-08-31T22:49:40.778Z,100688.88
2022-08-31T22:52:12.986Z,100690.19
2022-08-31T22:54:45.139Z,100682.50
2022-08-31T22:57:14.294Z,100684.75
2022-08-31T22:59:42.553Z,100673.09
2022-08-31T23:02:10.799Z,100688.00
2022-08-31T23:04:43.827Z,100692.00
2022-08-31T23:07:16.801Z,100684.13
2022-08-31T23:09:46.255Z,100665.09
2022-08-31T23:12:14.264Z,100676.34
2022-08-31T23:14:44.321Z,100676.25
2022-08-31T23:17:14.462Z,100661.88
2022-08-31T23:19:43.978Z,100666.28
2022-08-31T23:22:15.146Z,100658.19
2022-08-31T23:24:48.646Z,100665.22
2022-08-31T23:27:21.780Z,100653.66
2022-08-31T23:29:55.934Z,100661.88
2022-08-31T23:32:29.147Z,100653.09
2022-08-31T23:34:58.572Z,100646.56
2022-08-31T23:37:27.897Z,100649.34
2022-08-31T23:39:58.284Z,100651.72
2022-08-31T23:42:29.690Z,100640.50
2022-08-31T23:44:59.025Z,100651.06
2022-08-31T23:47:30.974Z,100644.06
2022-08-31T23:50:05.031Z,100645.97
2022-08-31T23:52:37.589Z,100638.78
2022-08-31T23:55:06.991Z,100636.69
2022-08-31T23:57:38.160Z,100646.31
